Nacogdoches, TX (75964)

9:54 PM CDT on May 25, 2015 (GMT -0500)
Mangham Regional | | Change Station
CLOSE
Current Station
Airport
Location: Nacogdoches,
Elevation: 354 ft
Nearby Weather Stations
Active Advisory: Tornado Watch Active Notice: Public Information Statement

Elev 354 ft 31.58 °N, 94.71 °W | Updated 2 hours ago

Thunderstorm
Thunderstorm
79 °F
Feels Like 79 °F
N
6
Wind Variable Wind from South

Today
High -- | Low -- °F
--% Chance of Precip.
Yesterday
High -- | Low -- °F
Precip. -- in
6:16 AM 8:14 PM
First Quarter, 54% visible
Pressure 29.91 in
Visibility -9999.0 miles
Clouds Few 8000 ft
Dew Point 72 °F
Humidity 78%
Rainfall 0.01 in
Snow Depth Not available.
UV 1 out of 12
Pollen 4.90 out of 12
Air Quality Not available.
Flu Activity Sporadic
METAR KOCH 252355Z AUTO 18005KT VCTS FEW080 26/22 A2991 RMK AO1 LTG DSNT SW TSB55 60001 10300 20250 52014

More Conditions Fewer Conditions

Pressure 29.91 in
Visibility -9999.0 miles
Clouds Few 8000 ft
Dew Point 72 °F
Humidity 78%
Rainfall 0.01 in
Snow Depth Not available.
UV 1 out of 12
Pollen 4.90 out of 12
Air Quality Not available.
Flu Activity Sporadic
METAR KOCH 252355Z AUTO 18005KT VCTS FEW080 26/22 A2991 RMK AO1 LTG DSNT SW TSB55 60001 10300 20250 52014

More Conditions Fewer Conditions

10-Day Weather Forecast

Almanac

Astronomy

May. 25, 2015 Rise Set
Actual Time
Civil Twilight
Nautical Twilight
Astronomical Twilight
Moon
Length of Visible Light
Length of Day
Tomorrow will be .
, % of the Moon is Illuminated

Today's Extremes

State Highs State Lows

Community

WunderPhotos

Upload Photos

1,824,238 photos uploaded!

WunderBlogs® & News

Nearby

Air Quality

  Air Quality AQ Index Pollutant
Not available.

Snow Depth

Station Depth Elevation

Earthquake Activity

City Distance Mag. Time & Date
Minimum magnitude displayed is 2.5.

Coastal Water Temperatures

Place Temperature

Stations

Nearby Weather Stations

Station Location Temp. Windchill Dew Point Humidity Wind Precip. Elev Updated Type
                   
Tornado Watch
Statement as of 9:52 PM CDT on May 25, 2015

Tornado Watch 212 remains in effect until 1100 PM CDT for the
following locations


TX
. Texas counties included are

Angelina DeWitt Karnes
Lavaca Montgomery Nacogdoches
Polk San Augustine San Jacinto
Shelby